createdAt,value
2022-12-20T00:00:55.584Z,100747.00
2022-12-20T00:03:23.017Z,100753.00
2022-12-20T00:05:50.430Z,100747.00
2022-12-20T00:08:17.807Z,100767.00
2022-12-20T00:10:46.561Z,100750.00
2022-12-20T00:13:14.052Z,100740.00
2022-12-20T00:15:41.406Z,100724.00
2022-12-20T00:18:09.052Z,100732.00
2022-12-20T00:20:36.441Z,100724.00
2022-12-20T00:23:03.762Z,100725.00
2022-12-20T00:25:31.009Z,100722.00
2022-12-20T00:28:00.535Z,100709.00
2022-12-20T00:30:28.177Z,100719.00
2022-12-20T00:32:55.455Z,100701.00
2022-12-20T00:35:22.802Z,100700.00
2022-12-20T00:37:50.067Z,100712.00
2022-12-20T00:40:17.664Z,100727.00
2022-12-20T00:42:44.937Z,100714.00
2022-12-20T00:45:13.006Z,100706.00
2022-12-20T00:47:40.450Z,100704.00
2022-12-20T00:50:08.584Z,100713.00
2022-12-20T00:52:35.910Z,100713.00
2022-12-20T00:55:03.637Z,100702.00
2022-12-20T00:57:30.930Z,100700.00
2022-12-20T00:59:58.424Z,100692.00
2022-12-20T01:02:26.763Z,100691.00
2022-12-20T01:04:54.405Z,100678.00
2022-12-20T01:07:22.763Z,100672.00
2022-12-20T01:09:50.123Z,100667.00
2022-12-20T01:12:17.519Z,100687.00
2022-12-20T01:14:44.856Z,100694.00
2022-12-20T01:17:12.140Z,100699.00
2022-12-20T01:19:40.874Z,100716.00
2022-12-20T01:22:08.172Z,100710.00
2022-12-20T01:24:35.405Z,100711.00
2022-12-20T01:27:02.697Z,100703.00
2022-12-20T01:29:30.045Z,100699.00
2022-12-20T01:31:57.508Z,100698.00
2022-12-20T01:34:24.904Z,100700.00
2022-12-20T01:36:53.085Z,100699.00
2022-12-20T01:39:20.437Z,100701.00
2022-12-20T01:41:47.763Z,100696.00
2022-12-20T01:45:03.742Z,100706.00
2022-12-20T01:47:33.826Z,100714.00
2022-12-20T01:50:04.401Z,100709.00
2022-12-20T01:52:36.519Z,100706.00
2022-12-20T01:55:08.419Z,100708.00
2022-12-20T01:57:40.739Z,100693.00
2022-12-20T02:00:10.285Z,100691.00
2022-12-20T02:02:37.809Z,100692.00
2022-12-20T02:05:06.193Z,100681.00
2022-12-20T02:07:35.743Z,100686.00
2022-12-20T02:10:04.153Z,100703.00
2022-12-20T02:12:37.963Z,100701.00
2022-12-20T02:15:17.433Z,100702.00
2022-12-20T02:17:54.736Z,100706.00
2022-12-20T02:20:55.236Z,100703.00
2022-12-20T02:24:01.287Z,100699.00
2022-12-20T02:26:50.391Z,100689.00
2022-12-20T02:29:25.978Z,100683.00
2022-12-20T02:32:00.295Z,100682.00
2022-12-20T02:34:29.979Z,100686.00
2022-12-20T02:36:57.288Z,100675.00
2022-12-20T02:39:27.197Z,100680.00
2022-12-20T02:41:57.148Z,100684.00
2022-12-20T02:44:46.503Z,100673.00
2022-12-20T02:47:18.913Z,100668.00
2022-12-20T02:49:48.675Z,100668.00
2022-12-20T02:52:18.286Z,100667.00
2022-12-20T02:54:45.744Z,100683.00
2022-12-20T02:57:17.991Z,100671.00
2022-12-20T02:59:52.372Z,100665.00
2022-12-20T03:02:21.204Z,100659.00
2022-12-20T03:04:50.585Z,100666.00
2022-12-20T03:07:17.984Z,100658.00
2022-12-20T03:09:45.714Z,100658.00
2022-12-20T03:12:15.315Z,100664.00
2022-12-20T03:14:42.812Z,100665.00
2022-12-20T03:17:10.373Z,100654.00
2022-12-20T03:19:38.550Z,100663.00
2022-12-20T03:22:06.010Z,100661.00
2022-12-20T03:24:33.373Z,100661.00
2022-12-20T03:27:00.815Z,100649.00
2022-12-20T03:29:28.541Z,100662.00
2022-12-20T03:31:55.983Z,100657.00
2022-12-20T03:34:23.656Z,100647.00
2022-12-20T03:36:51.726Z,100657.00
2022-12-20T03:39:19.253Z,100661.00
2022-12-20T03:41:46.579Z,100657.00
2022-12-20T03:44:13.897Z,100655.00
2022-12-20T03:46:41.485Z,100650.00
2022-12-20T03:49:08.813Z,100655.00
2022-12-20T03:51:36.210Z,100649.00
2022-12-20T03:54:04.213Z,100650.00
2022-12-20T03:56:31.754Z,100643.00
2022-12-20T03:58:59.412Z,100645.00
2022-12-20T04:01:28.963Z,100639.00
2022-12-20T04:03:57.010Z,100629.00
2022-12-20T04:06:24.842Z,100644.00
2022-12-20T04:08:52.308Z,100630.00
2022-12-20T04:11:20.510Z,100634.00
2022-12-20T04:13:49.622Z,100645.00
2022-12-20T04:16:18.745Z,100657.00
2022-12-20T04:18:46.069Z,100640.00
2022-12-20T04:21:13.765Z,100643.00
2022-12-20T04:23:42.937Z,100635.00
2022-12-20T04:26:12.634Z,100643.00
2022-12-20T04:28:40.966Z,100644.00
2022-12-20T04:31:08.355Z,100637.00
2022-12-20T04:33:36.069Z,100635.00
2022-12-20T04:36:03.940Z,100643.00
2022-12-20T04:38:31.305Z,100630.00
2022-12-20T04:40:58.757Z,100639.00
2022-12-20T04:43:26.472Z,100638.00
2022-12-20T04:45:55.953Z,100630.00
2022-12-20T04:48:54.686Z,100628.00
2022-12-20T04:51:11.785Z,100621.00
2022-12-20T04:53:48.127Z,100622.00
2022-12-20T04:56:18.010Z,100622.00
2022-12-20T04:58:45.724Z,100629.00
2022-12-20T05:01:14.131Z,100622.00
2022-12-20T05:03:41.978Z,100616.00
2022-12-20T05:06:09.987Z,100617.00
2022-12-20T05:08:37.973Z,100618.00
2022-12-20T05:11:06.116Z,100627.00
2022-12-20T05:13:34.048Z,100618.00
2022-12-20T05:16:01.537Z,100621.00
2022-12-20T05:18:29.928Z,100623.00
2022-12-20T05:21:16.077Z,100613.00
2022-12-20T05:24:01.598Z,100608.00
2022-12-20T05:26:32.075Z,100603.00
2022-12-20T05:28:59.480Z,100604.00
2022-12-20T05:31:27.240Z,100597.00
2022-12-20T05:33:55.735Z,100606.00
2022-12-20T05:36:23.068Z,100603.00
2022-12-20T05:38:50.328Z,100613.00
2022-12-20T05:41:17.745Z,100601.00
2022-12-20T05:43:45.027Z,100596.00
2022-12-20T05:46:12.472Z,100593.00
2022-12-20T05:48:39.798Z,100578.00
2022-12-20T05:51:07.889Z,100576.00
2022-12-20T05:53:35.242Z,100572.00
2022-12-20T05:56:02.854Z,100594.00
2022-12-20T05:58:30.250Z,100592.00
2022-12-20T06:00:59.719Z,100592.00
2022-12-20T06:03:27.148Z,100587.00
2022-12-20T06:05:54.683Z,100594.00
2022-12-20T06:08:23.047Z,100593.00
2022-12-20T06:10:50.745Z,100582.00
2022-12-20T06:13:18.584Z,100597.00
2022-12-20T06:15:46.129Z,100599.00
2022-12-20T06:18:13.536Z,100600.00
2022-12-20T06:20:40.830Z,100602.00
2022-12-20T06:23:09.265Z,100600.00
2022-12-20T06:25:39.008Z,100605.00
2022-12-20T06:28:07.056Z,100609.00
2022-12-20T06:30:34.643Z,100599.00
2022-12-20T06:33:02.742Z,100592.00
2022-12-20T06:35:30.479Z,100591.00
2022-12-20T06:37:58.196Z,100589.00
2022-12-20T06:40:25.510Z,100593.00
2022-12-20T06:42:53.518Z,100594.00
2022-12-20T06:45:20.867Z,100587.00
2022-12-20T06:47:48.164Z,100593.00
2022-12-20T06:50:15.746Z,100587.00
2022-12-20T06:52:43.108Z,100595.00
2022-12-20T06:55:10.807Z,100596.00
2022-12-20T06:57:38.389Z,100599.00
2022-12-20T07:00:09.920Z,100607.00
2022-12-20T07:02:37.470Z,100601.00
2022-12-20T07:05:05.548Z,100611.00
2022-12-20T07:07:33.753Z,100607.00
2022-12-20T07:10:03.745Z,100603.00
2022-12-20T07:12:32.004Z,100594.00
2022-12-20T07:14:59.892Z,100583.00
2022-12-20T07:17:27.905Z,100580.00
2022-12-20T07:19:55.198Z,100581.00
2022-12-20T07:22:22.500Z,100587.00
2022-12-20T07:24:49.799Z,100579.00
2022-12-20T07:27:17.107Z,100573.00
2022-12-20T07:29:44.405Z,100573.00
2022-12-20T07:32:12.462Z,100574.00
2022-12-20T07:34:40.491Z,100570.00
2022-12-20T07:37:08.832Z,100573.00
2022-12-20T07:39:36.266Z,100576.00
2022-12-20T07:42:05.335Z,100566.00
2022-12-20T07:44:33.211Z,100578.00
2022-12-20T07:47:01.448Z,100580.00
2022-12-20T07:49:29.137Z,100581.00
2022-12-20T07:52:01.176Z,100574.00
2022-12-20T07:54:31.384Z,100596.00
2022-12-20T07:57:02.048Z,100580.00
2022-12-20T07:59:36.450Z,100576.00
2022-12-20T08:02:05.507Z,100574.00
2022-12-20T08:04:34.569Z,100588.00
2022-12-20T08:07:03.417Z,100577.00
2022-12-20T08:09:36.043Z,100598.00
2022-12-20T08:12:03.863Z,100587.00
2022-12-20T08:14:31.647Z,100592.00
2022-12-20T08:16:58.985Z,100609.00
2022-12-20T08:19:31.977Z,100597.00
2022-12-20T08:22:00.217Z,100604.00
2022-12-20T08:24:28.715Z,100614.00
2022-12-20T08:26:57.757Z,100603.00
2022-12-20T08:29:25.182Z,100604.00
2022-12-20T08:31:52.521Z,100605.00
2022-12-20T08:34:19.831Z,100611.00
2022-12-20T08:36:47.329Z,100617.00
2022-12-20T08:39:14.597Z,100592.00
2022-12-20T08:41:42.659Z,100602.00
2022-12-20T08:44:10.177Z,100599.00
2022-12-20T08:46:37.806Z,100604.00
2022-12-20T08:49:05.652Z,100622.00
2022-12-20T08:51:33.203Z,100609.00
2022-12-20T08:54:01.904Z,100616.00
2022-12-20T08:56:29.564Z,100619.00
2022-12-20T08:58:57.539Z,100615.00
2022-12-20T09:01:26.496Z,100607.00
2022-12-20T09:03:54.047Z,100607.00
2022-12-20T09:06:22.556Z,100610.00
2022-12-20T09:08:50.354Z,100601.00
2022-12-20T09:11:19.527Z,100604.00
2022-12-20T09:13:48.953Z,100608.00
2022-12-20T09:16:21.149Z,100609.00
2022-12-20T09:18:49.659Z,100610.00
2022-12-20T09:21:17.370Z,100609.00
2022-12-20T09:23:44.841Z,100615.00
2022-12-20T09:26:14.402Z,100612.00
2022-12-20T09:28:42.522Z,100621.00
2022-12-20T09:31:12.745Z,100617.00
2022-12-20T09:33:41.543Z,100616.00
2022-12-20T09:36:12.004Z,100611.00
2022-12-20T09:38:39.369Z,100610.00
2022-12-20T09:41:08.599Z,100614.00
2022-12-20T09:43:36.997Z,100620.00
2022-12-20T09:46:04.803Z,100615.00
2022-12-20T09:48:34.651Z,100619.00
2022-12-20T09:51:14.899Z,100623.00
2022-12-20T09:53:53.809Z,100629.00
2022-12-20T09:56:26.422Z,100628.00
2022-12-20T09:59:02.288Z,100613.00
2022-12-20T10:01:38.397Z,100611.00
2022-12-20T10:04:15.587Z,100610.00
2022-12-20T10:06:55.279Z,100613.00
2022-12-20T10:09:39.954Z,100616.00
2022-12-20T10:12:18.907Z,100605.00
2022-12-20T10:15:00.627Z,100620.00
2022-12-20T10:17:40.904Z,100605.00
2022-12-20T10:20:24.424Z,100600.00
2022-12-20T10:22:57.777Z,100603.00
2022-12-20T10:25:29.982Z,100596.00
2022-12-20T10:27:57.913Z,100602.00
2022-12-20T10:30:26.941Z,100598.00
2022-12-20T10:32:55.888Z,100583.00
2022-12-20T10:35:26.145Z,100586.00
2022-12-20T10:38:09.800Z,100568.00
2022-12-20T10:41:18.776Z,100570.00
2022-12-20T10:43:28.558Z,100560.00
2022-12-20T10:46:00.379Z,100565.00
2022-12-20T10:48:30.978Z,100552.00
2022-12-20T10:51:01.225Z,100555.00
2022-12-20T10:53:30.490Z,100552.00
2022-12-20T10:56:13.413Z,100551.00
2022-12-20T10:58:41.587Z,100544.00
2022-12-20T11:01:15.303Z,100529.00
2022-12-20T11:03:55.272Z,100533.00
2022-12-20T11:06:26.655Z,100513.00
2022-12-20T11:09:12.235Z,100506.00
2022-12-20T11:11:39.659Z,100511.00
2022-12-20T11:14:15.170Z,100520.00
2022-12-20T11:16:45.594Z,100519.00
2022-12-20T11:19:34.449Z,100500.00
2022-12-20T11:22:11.066Z,100509.00
2022-12-20T11:24:48.381Z,100509.00
2022-12-20T11:27:26.477Z,100509.00
2022-12-20T11:30:09.544Z,100496.00
2022-12-20T11:33:07.534Z,100478.00
2022-12-20T11:35:45.764Z,100480.00
2022-12-20T11:38:22.488Z,100478.00
2022-12-20T11:40:57.838Z,100473.00
2022-12-20T11:44:15.334Z,100462.00
2022-12-20T11:46:40.311Z,100471.00
2022-12-20T11:49:27.501Z,100461.00
2022-12-20T11:52:05.329Z,100465.00
2022-12-20T11:54:38.008Z,100472.00
2022-12-20T11:57:13.259Z,100470.00
2022-12-20T11:59:45.969Z,100472.00
2022-12-20T12:02:17.347Z,100461.00
2022-12-20T12:04:50.492Z,100458.00
2022-12-20T12:07:21.833Z,100457.00
2022-12-20T12:09:56.061Z,100452.00
2022-12-20T12:12:27.414Z,100440.00
2022-12-20T12:15:01.894Z,100449.00
2022-12-20T12:17:36.715Z,100441.00
2022-12-20T12:20:22.828Z,100437.00
2022-12-20T12:22:54.540Z,100433.00
2022-12-20T12:25:21.965Z,100426.00
2022-12-20T12:27:50.170Z,100423.00
2022-12-20T12:30:18.174Z,100421.00
2022-12-20T12:32:51.887Z,100435.00
2022-12-20T12:35:45.571Z,100415.00
2022-12-20T12:38:46.359Z,100419.00
2022-12-20T12:41:34.948Z,100411.00
2022-12-20T12:44:25.164Z,100407.00
2022-12-20T12:47:00.186Z,100414.00
2022-12-20T12:49:30.139Z,100398.00
2022-12-20T12:52:00.178Z,100405.00
2022-12-20T12:54:30.048Z,100413.00
2022-12-20T12:57:02.578Z,100396.00
2022-12-20T12:59:51.982Z,100395.00
2022-12-20T13:02:34.016Z,100405.00
2022-12-20T13:05:22.336Z,100400.00
2022-12-20T13:07:52.965Z,100391.00
2022-12-20T13:11:03.132Z,100383.00
2022-12-20T13:13:30.744Z,100380.00
2022-12-20T13:16:12.596Z,100380.00
2022-12-20T13:18:54.749Z,100378.00
2022-12-20T13:21:38.887Z,100369.00
2022-12-20T13:24:49.557Z,100356.00
2022-12-20T13:27:26.823Z,100359.00
2022-12-20T13:30:15.120Z,100348.00
2022-12-20T13:33:20.804Z,100355.00
2022-12-20T13:36:00.170Z,100364.00
2022-12-20T13:38:56.253Z,100361.00
2022-12-20T13:41:37.005Z,100348.00
2022-12-20T13:44:34.908Z,100339.00
2022-12-20T13:47:17.133Z,100340.00
2022-12-20T13:49:45.500Z,100339.00
2022-12-20T13:52:27.668Z,100325.00
2022-12-20T13:54:57.687Z,100325.00
2022-12-20T13:57:31.968Z,100332.00
2022-12-20T14:00:07.053Z,100346.00
2022-12-20T14:02:40.825Z,100353.00
2022-12-20T14:05:19.348Z,100343.00
2022-12-20T14:07:51.760Z,100335.00
2022-12-20T14:10:22.440Z,100342.00
2022-12-20T14:12:53.846Z,100336.00
2022-12-20T14:15:27.946Z,100335.00
2022-12-20T14:17:55.860Z,100341.00
2022-12-20T14:20:31.372Z,100338.00
2022-12-20T14:23:06.024Z,100334.00
2022-12-20T14:25:38.465Z,100333.00
2022-12-20T14:28:13.735Z,100335.00
2022-12-20T14:30:43.986Z,100336.00
2022-12-20T14:33:20.626Z,100322.00
2022-12-20T14:35:50.362Z,100312.00
2022-12-20T14:38:23.478Z,100315.00
2022-12-20T14:40:54.211Z,100315.00
2022-12-20T14:43:28.084Z,100305.00
2022-12-20T14:46:18.886Z,100311.00
2022-12-20T14:48:46.912Z,100298.00
2022-12-20T14:51:21.373Z,100313.00
2022-12-20T14:53:50.221Z,100298.00
2022-12-20T14:56:23.817Z,100295.00
2022-12-20T14:59:13.254Z,100301.00
2022-12-20T15:01:44.215Z,100304.00
2022-12-20T15:04:29.116Z,100312.00
2022-12-20T15:06:57.363Z,100316.00
2022-12-20T15:09:24.666Z,100312.00
2022-12-20T15:11:53.255Z,100322.00
2022-12-20T15:14:33.330Z,100333.00
2022-12-20T15:17:00.834Z,100330.00
2022-12-20T15:19:28.124Z,100325.00
2022-12-20T15:21:56.833Z,100335.00
2022-12-20T15:24:26.231Z,100326.00
2022-12-20T15:26:53.758Z,100309.00
2022-12-20T15:29:23.370Z,100316.00
2022-12-20T15:31:53.105Z,100318.00
2022-12-20T15:34:27.809Z,100310.00
2022-12-20T15:36:56.162Z,100316.00
2022-12-20T15:39:24.225Z,100315.00
2022-12-20T15:41:51.845Z,100318.00
2022-12-20T15:44:22.829Z,100310.00
2022-12-20T15:46:50.494Z,100311.00
2022-12-20T15:49:20.584Z,100313.00
2022-12-20T15:51:49.504Z,100312.00
2022-12-20T15:54:26.706Z,100299.00
2022-12-20T15:56:54.258Z,100287.00
2022-12-20T16:02:18.462Z,100294.00
2022-12-20T16:04:45.794Z,100302.00
2022-12-20T16:07:13.287Z,100313.00
2022-12-20T16:09:41.333Z,100312.00
2022-12-20T16:12:15.316Z,100300.00
2022-12-20T16:14:42.877Z,100309.00
2022-12-20T16:17:13.698Z,100305.00
2022-12-20T16:19:41.672Z,100297.00
2022-12-20T16:22:14.488Z,100292.00
2022-12-20T16:24:42.815Z,100287.00
2022-12-20T16:27:10.207Z,100288.00
2022-12-20T16:29:37.591Z,100292.00
2022-12-20T16:32:13.434Z,100298.00
2022-12-20T16:34:40.773Z,100294.00
2022-12-20T16:37:08.111Z,100290.00
2022-12-20T16:39:35.441Z,100295.00
2022-12-20T16:42:03.512Z,100290.00
2022-12-20T16:44:30.818Z,100285.00
2022-12-20T16:46:58.317Z,100291.00
2022-12-20T16:49:26.008Z,100288.00
2022-12-20T16:51:53.442Z,100281.00
2022-12-20T16:54:22.166Z,100284.00
2022-12-20T16:56:54.335Z,100284.00
2022-12-20T16:59:23.512Z,100276.00
2022-12-20T17:01:54.004Z,100272.00
2022-12-20T17:04:22.035Z,100264.00
2022-12-20T17:06:49.907Z,100277.00
2022-12-20T17:12:03.903Z,100277.00
2022-12-20T17:14:31.944Z,100272.00
2022-12-20T17:17:01.358Z,100279.00
2022-12-20T17:19:28.700Z,100283.00
2022-12-20T17:24:41.420Z,100280.00
2022-12-20T17:27:10.372Z,100276.00
2022-12-20T17:29:38.333Z,100276.00
2022-12-20T17:32:18.223Z,100266.00
2022-12-20T17:34:45.761Z,100275.00
2022-12-20T17:37:13.070Z,100269.00
2022-12-20T17:39:40.747Z,100275.00
2022-12-20T17:42:12.066Z,100269.00
2022-12-20T17:44:40.270Z,100264.00
2022-12-20T17:47:07.607Z,100250.00
2022-12-20T17:49:34.898Z,100262.00
2022-12-20T17:52:02.163Z,100268.00
2022-12-20T17:54:36.593Z,100256.00
2022-12-20T17:57:06.653Z,100269.00
2022-12-20T17:59:33.974Z,100270.00
2022-12-20T18:02:02.236Z,100250.00
2022-12-20T18:04:29.830Z,100242.00
2022-12-20T18:06:57.151Z,100224.00
2022-12-20T18:09:24.441Z,100232.00
2022-12-20T18:11:51.725Z,100226.00
2022-12-20T18:14:19.097Z,100236.00
2022-12-20T18:16:46.785Z,100236.00
2022-12-20T18:19:17.030Z,100240.00
2022-12-20T18:21:44.966Z,100242.00
2022-12-20T18:24:13.522Z,100241.00
2022-12-20T18:26:41.149Z,100244.00
2022-12-20T18:29:09.220Z,100237.00
2022-12-20T18:31:36.763Z,100239.00
2022-12-20T18:34:04.420Z,100235.00
2022-12-20T18:36:33.870Z,100236.00
2022-12-20T18:39:05.080Z,100237.00
2022-12-20T18:41:32.817Z,100230.00
2022-12-20T18:44:01.668Z,100241.00
2022-12-20T18:46:29.437Z,100241.00
2022-12-20T18:48:59.508Z,100231.00
2022-12-20T18:51:29.356Z,100235.00
2022-12-20T18:53:59.107Z,100228.00
2022-12-20T18:56:30.957Z,100225.00
2022-12-20T18:59:04.523Z,100241.00
2022-12-20T19:01:38.089Z,100243.00
2022-12-20T19:04:07.446Z,100235.00
2022-12-20T19:06:35.379Z,100228.00
2022-12-20T19:09:05.624Z,100223.00
2022-12-20T19:11:33.724Z,100217.00
2022-12-20T19:14:01.353Z,100231.00
2022-12-20T19:16:31.458Z,100208.00
2022-12-20T19:18:59.545Z,100205.00
2022-12-20T19:21:28.127Z,100193.00
2022-12-20T19:23:57.782Z,100197.00
2022-12-20T19:26:29.024Z,100200.00
2022-12-20T19:28:57.048Z,100183.00
2022-12-20T19:31:25.972Z,100176.00
2022-12-20T19:33:55.713Z,100181.00
2022-12-20T19:36:25.251Z,100186.00
2022-12-20T19:38:54.973Z,100185.00
2022-12-20T19:41:24.056Z,100171.00
2022-12-20T19:43:52.583Z,100178.00
2022-12-20T19:46:27.923Z,100184.00
2022-12-20T19:48:57.748Z,100182.00
2022-12-20T19:51:26.135Z,100174.00
2022-12-20T19:53:55.078Z,100182.00
2022-12-20T19:56:24.475Z,100185.00
2022-12-20T19:58:53.003Z,100181.00
2022-12-20T20:01:22.254Z,100183.00
2022-12-20T20:03:49.582Z,100178.00
2022-12-20T20:06:17.023Z,100198.00
2022-12-20T20:08:44.816Z,100195.00
2022-12-20T20:11:12.557Z,100190.00
2022-12-20T20:13:40.423Z,100182.00
2022-12-20T20:16:09.827Z,100186.00
2022-12-20T20:18:38.409Z,100179.00
2022-12-20T20:21:07.863Z,100183.00
2022-12-20T20:23:36.034Z,100188.00
2022-12-20T20:26:07.301Z,100170.00
2022-12-20T20:28:40.290Z,100182.00
2022-12-20T20:31:13.176Z,100175.00
2022-12-20T20:33:40.950Z,100176.00
2022-12-20T20:36:12.008Z,100165.00
2022-12-20T20:38:39.433Z,100155.00
2022-12-20T20:41:06.795Z,100166.00
2022-12-20T20:43:36.147Z,100160.00
2022-12-20T20:46:03.631Z,100153.00
2022-12-20T20:48:31.729Z,100147.00
2022-12-20T20:50:59.435Z,100144.00
2022-12-20T20:53:33.167Z,100139.00
2022-12-20T20:56:01.272Z,100147.00
2022-12-20T20:58:29.281Z,100170.00
2022-12-20T21:00:59.785Z,100177.00
2022-12-20T21:03:27.766Z,100169.00
2022-12-20T21:08:43.454Z,100164.00
2022-12-20T21:11:11.108Z,100158.00
2022-12-20T21:13:38.685Z,100167.00
2022-12-20T21:16:07.693Z,100157.00
2022-12-20T21:18:35.371Z,100154.00
2022-12-20T21:21:08.023Z,100143.00
2022-12-20T21:23:35.364Z,100155.00
2022-12-20T21:26:03.027Z,100143.00
2022-12-20T21:28:30.979Z,100146.00
2022-12-20T21:30:59.968Z,100154.00
2022-12-20T21:33:27.620Z,100159.00
2022-12-20T21:36:02.170Z,100147.00
2022-12-20T21:38:30.379Z,100144.00
2022-12-20T21:41:01.798Z,100133.00
2022-12-20T21:43:29.681Z,100133.00
2022-12-20T21:45:57.427Z,100134.00
2022-12-20T21:48:25.818Z,100150.00
2022-12-20T21:50:59.857Z,100166.00
2022-12-20T21:53:27.329Z,100170.00
2022-12-20T21:55:56.473Z,100150.00
2022-12-20T21:58:24.229Z,100147.00
2022-12-20T22:00:55.127Z,100149.00
2022-12-20T22:03:23.412Z,100163.00
2022-12-20T22:05:52.488Z,100152.00
2022-12-20T22:08:20.770Z,100144.00
2022-12-20T22:10:49.189Z,100135.00
2022-12-20T22:13:17.267Z,100127.00
2022-12-20T22:15:45.197Z,100128.00
2022-12-20T22:18:12.638Z,100135.00
2022-12-20T22:20:43.690Z,100124.00
2022-12-20T22:23:11.219Z,100114.00
2022-12-20T22:25:38.973Z,100115.00
2022-12-20T22:28:06.741Z,100114.00
2022-12-20T22:30:35.064Z,100110.00
2022-12-20T22:33:02.302Z,100102.00
2022-12-20T22:35:29.595Z,100114.00
2022-12-20T22:37:57.307Z,100104.00
2022-12-20T22:40:24.618Z,100103.00
2022-12-20T22:42:51.920Z,100098.00
2022-12-20T22:45:19.225Z,100101.00
2022-12-20T22:47:47.338Z,100092.00
2022-12-20T22:50:14.910Z,100111.00
2022-12-20T22:52:42.201Z,100116.00
2022-12-20T22:55:10.113Z,100133.00
2022-12-20T22:57:37.443Z,100126.00
2022-12-20T23:00:06.013Z,100132.00
2022-12-20T23:02:33.562Z,100127.00
2022-12-20T23:05:01.816Z,100123.00
2022-12-20T23:07:29.159Z,100109.00
2022-12-20T23:09:56.557Z,100093.00
2022-12-20T23:12:42.092Z,100087.00
2022-12-20T23:15:29.587Z,100087.00
2022-12-20T23:17:57.055Z,100094.00
2022-12-20T23:20:43.201Z,100087.00
2022-12-20T23:23:10.507Z,100075.00
2022-12-20T23:25:37.838Z,100066.00
2022-12-20T23:28:05.347Z,100063.00
2022-12-20T23:30:32.708Z,100074.00
2022-12-20T23:32:59.991Z,100074.00
2022-12-20T23:35:27.965Z,100088.00
2022-12-20T23:37:56.040Z,100086.00
2022-12-20T23:40:23.375Z,100084.00
2022-12-20T23:42:53.797Z,100046.00
2022-12-20T23:45:21.109Z,100045.00
2022-12-20T23:47:48.436Z,100062.00
2022-12-20T23:50:15.952Z,100061.00
2022-12-20T23:52:44.737Z,100042.00
2022-12-20T23:55:12.064Z,100044.00
2022-12-20T23:57:39.358Z,100046.00
